createdAt,value
2017-12-14T00:00:50.825Z,99.62
2017-12-14T00:01:50.752Z,99.67
2017-12-14T00:02:50.765Z,99.59
2017-12-14T00:03:50.822Z,99.51
2017-12-14T00:04:50.816Z,99.53
2017-12-14T00:05:50.738Z,99.45
2017-12-14T00:06:50.890Z,99.78
2017-12-14T00:07:50.827Z,99.96
2017-12-14T00:08:50.793Z,99.99
2017-12-14T00:09:50.825Z,99.99
2017-12-14T00:10:50.737Z,99.81
2017-12-14T00:11:50.796Z,99.51
2017-12-14T00:12:50.692Z,99.64
2017-12-14T00:13:50.789Z,99.92
2017-12-14T00:14:50.790Z,99.99
2017-12-14T00:15:50.791Z,99.99
2017-12-14T00:16:50.790Z,99.64
2017-12-14T00:17:50.734Z,99.34
2017-12-14T00:18:50.791Z,99.48
2017-12-14T00:19:50.793Z,99.45
2017-12-14T00:20:50.801Z,99.23
2017-12-14T00:21:50.797Z,99.29
2017-12-14T00:22:50.762Z,99.51
2017-12-14T00:23:50.765Z,99.75
2017-12-14T00:24:50.838Z,99.81
2017-12-14T00:25:50.766Z,99.81
2017-12-14T00:26:50.840Z,99.86
2017-12-14T00:27:50.753Z,99.99
2017-12-14T00:28:50.772Z,99.99
2017-12-14T00:29:50.840Z,99.99
2017-12-14T00:30:50.771Z,99.99
2017-12-14T00:31:50.842Z,99.96
2017-12-14T00:32:50.768Z,99.94
2017-12-14T00:33:50.843Z,99.99
2017-12-14T00:34:50.844Z,99.64
2017-12-14T00:35:50.775Z,99.29
2017-12-14T00:36:50.844Z,98.75
2017-12-14T00:37:50.773Z,98.29
2017-12-14T00:38:50.848Z,98.37
2017-12-14T00:39:50.772Z,98.15
2017-12-14T00:40:50.850Z,98.12
2017-12-14T00:41:50.783Z,98.26
2017-12-14T00:42:50.721Z,98.23
2017-12-14T00:43:50.833Z,98.10
2017-12-14T00:44:50.833Z,97.93
2017-12-14T00:45:50.724Z,98.40
2017-12-14T00:46:50.858Z,98.29
2017-12-14T00:47:50.776Z,98.10
2017-12-14T00:48:50.840Z,98.10
2017-12-14T00:49:50.829Z,98.31
2017-12-14T00:50:50.815Z,98.02
2017-12-14T00:51:50.815Z,97.96
2017-12-14T00:52:50.853Z,97.58
2017-12-14T00:53:50.786Z,97.91
2017-12-14T00:54:50.854Z,97.72
2017-12-14T00:55:50.784Z,97.69
2017-12-14T00:56:50.853Z,97.36
2017-12-14T00:57:50.820Z,96.93
2017-12-14T00:58:50.864Z,96.99
2017-12-14T00:59:50.783Z,97.10
2017-12-14T01:00:50.773Z,96.99
2017-12-14T01:01:50.787Z,96.50
2017-12-14T01:02:50.864Z,96.15
2017-12-14T01:03:50.786Z,96.02
2017-12-14T01:04:50.791Z,95.83
2017-12-14T01:05:50.862Z,95.80
2017-12-14T01:06:50.790Z,96.15
2017-12-14T01:07:50.863Z,96.31
2017-12-14T01:08:50.787Z,96.36
2017-12-14T01:09:50.864Z,95.72
2017-12-14T01:10:50.796Z,95.69
2017-12-14T01:11:50.868Z,96.02
2017-12-14T01:12:50.791Z,95.72
2017-12-14T01:13:50.796Z,95.85
2017-12-14T01:14:50.780Z,96.20
2017-12-14T01:15:50.800Z,96.26
2017-12-14T01:16:50.871Z,96.28
2017-12-14T01:19:50.794Z,96.55
2017-12-14T01:20:50.871Z,96.83
2017-12-14T01:21:50.800Z,96.36
2017-12-14T01:22:50.829Z,96.36
2017-12-14T01:23:50.829Z,96.66
2017-12-14T01:24:50.775Z,96.91
2017-12-14T01:25:50.742Z,96.99
2017-12-14T01:26:50.742Z,97.15
2017-12-14T01:27:50.779Z,97.02
2017-12-14T01:28:50.836Z,97.18
2017-12-14T01:29:50.802Z,97.39
2017-12-14T01:30:50.803Z,96.91
2017-12-14T01:31:50.744Z,96.07
2017-12-14T01:32:50.764Z,95.69
2017-12-14T01:33:50.816Z,95.53
2017-12-14T01:34:50.885Z,95.91
2017-12-14T01:35:50.811Z,95.69
2017-12-14T01:36:50.886Z,95.64
2017-12-14T01:37:50.806Z,95.58
2017-12-14T01:38:50.883Z,95.88
2017-12-14T01:39:50.809Z,95.28
2017-12-14T01:40:50.807Z,94.07
2017-12-14T01:41:50.887Z,93.94
2017-12-14T01:42:50.845Z,94.23
2017-12-14T01:43:50.787Z,94.48
2017-12-14T01:44:50.844Z,94.04
2017-12-14T01:45:50.849Z,94.29
2017-12-14T01:46:50.789Z,93.56
2017-12-14T01:47:50.751Z,93.78
2017-12-14T01:48:50.758Z,93.67
2017-12-14T01:49:50.775Z,93.24
2017-12-14T01:50:50.847Z,92.51
2017-12-14T01:51:50.792Z,92.49
2017-12-14T01:52:50.892Z,91.92
2017-12-14T01:53:50.814Z,92.38
2017-12-14T01:54:50.897Z,92.51
2017-12-14T01:55:50.820Z,91.97
2017-12-14T01:56:50.890Z,91.57
2017-12-14T01:57:50.820Z,91.07
2017-12-14T01:58:50.806Z,91.41
2017-12-14T01:59:50.817Z,90.71
2017-12-14T02:00:50.896Z,90.90
2017-12-14T02:01:50.821Z,91.55
2017-12-14T02:02:50.890Z,91.82
2017-12-14T02:03:50.823Z,92.27
2017-12-14T02:04:50.809Z,91.82
2017-12-14T02:05:50.901Z,90.82
2017-12-14T02:06:50.927Z,90.53
2017-12-14T02:07:50.824Z,88.81
2017-12-14T02:08:50.823Z,88.50
2017-12-14T02:09:50.826Z,88.71
2017-12-14T02:10:50.826Z,88.97
2017-12-14T02:11:50.814Z,89.24
2017-12-14T02:12:50.897Z,89.03
2017-12-14T02:13:50.864Z,89.40
2017-12-14T02:14:50.900Z,89.59
2017-12-14T02:15:50.776Z,89.83
2017-12-14T02:16:50.864Z,87.61
2017-12-14T02:17:50.910Z,86.87
2017-12-14T02:18:50.779Z,87.32
2017-12-14T02:19:50.899Z,87.80
2017-12-14T02:20:50.854Z,88.12
2017-12-14T02:21:50.803Z,87.56
2017-12-14T02:22:50.834Z,88.12
2017-12-14T02:23:50.830Z,88.23
2017-12-14T02:24:50.868Z,88.28
2017-12-14T02:25:50.804Z,88.20
2017-12-14T02:26:50.867Z,88.62
2017-12-14T02:27:50.868Z,88.17
2017-12-14T02:28:50.745Z,87.53
2017-12-14T02:29:50.870Z,87.69
2017-12-14T02:30:50.797Z,87.96
2017-12-14T02:31:50.854Z,87.69
2017-12-14T02:32:50.899Z,88.12
2017-12-14T02:35:50.858Z,88.36
2017-12-14T02:36:50.882Z,88.23
2017-12-14T02:37:50.795Z,88.62
2017-12-14T02:38:50.828Z,89.16
2017-12-14T02:39:50.828Z,88.87
2017-12-14T02:40:50.902Z,88.71
2017-12-14T02:41:50.910Z,88.01
2017-12-14T02:42:50.879Z,87.32
2017-12-14T02:43:50.910Z,86.38
2017-12-14T02:44:50.781Z,86.60
2017-12-14T02:45:50.848Z,86.76
2017-12-14T02:46:50.821Z,86.25
2017-12-14T02:47:50.860Z,86.65
2017-12-14T02:48:50.820Z,85.72
2017-12-14T02:49:50.890Z,85.99
2017-12-14T02:50:50.794Z,85.16
2017-12-14T02:51:50.914Z,85.64
2017-12-14T02:52:50.925Z,85.96
2017-12-14T02:53:50.856Z,86.33
2017-12-14T02:54:50.858Z,85.46
2017-12-14T02:55:50.930Z,85.88
2017-12-14T02:56:50.854Z,86.65
2017-12-14T02:57:50.930Z,87.18
2017-12-14T02:58:50.857Z,87.45
2017-12-14T02:59:50.931Z,87.61
2017-12-14T03:00:50.861Z,86.20
2017-12-14T03:01:50.868Z,86.60
2017-12-14T03:02:50.934Z,87.45
2017-12-14T03:03:50.861Z,87.00
2017-12-14T03:04:50.935Z,86.97
2017-12-14T03:05:50.825Z,86.91
2017-12-14T03:06:50.864Z,86.41
2017-12-14T03:07:50.935Z,86.60
2017-12-14T03:08:50.866Z,86.15
2017-12-14T03:09:50.938Z,86.91
2017-12-14T03:10:50.864Z,85.61
2017-12-14T03:11:50.858Z,85.93
2017-12-14T03:12:50.861Z,87.32
2017-12-14T03:13:50.898Z,87.43
2017-12-14T03:14:50.824Z,87.69
2017-12-14T03:15:50.867Z,87.88
2017-12-14T03:16:50.836Z,88.25
2017-12-14T03:17:50.868Z,88.15
2017-12-14T03:18:50.846Z,88.52
2017-12-14T03:19:50.902Z,88.68
2017-12-14T03:20:50.870Z,88.25
2017-12-14T03:21:50.827Z,87.77
2017-12-14T03:22:50.904Z,87.24
2017-12-14T03:23:50.871Z,87.43
2017-12-14T03:24:50.868Z,88.04
2017-12-14T03:25:50.873Z,88.36
2017-12-14T03:26:50.941Z,88.50
2017-12-14T03:27:50.875Z,89.06
2017-12-14T03:28:50.943Z,89.03
2017-12-14T03:29:50.947Z,88.76
2017-12-14T03:30:50.946Z,88.76
2017-12-14T03:31:50.873Z,88.87
2017-12-14T03:32:50.877Z,89.43
2017-12-14T03:33:50.910Z,89.59
2017-12-14T03:34:50.908Z,89.48
2017-12-14T03:35:50.788Z,89.91
2017-12-14T03:36:50.912Z,90.18
2017-12-14T03:37:50.877Z,89.72
2017-12-14T03:38:50.819Z,89.99
2017-12-14T03:39:50.910Z,90.13
2017-12-14T03:40:50.835Z,89.59
2017-12-14T03:41:50.852Z,89.32
2017-12-14T03:42:50.912Z,89.16
2017-12-14T03:43:50.955Z,89.56
2017-12-14T03:44:50.928Z,89.32
2017-12-14T03:45:50.959Z,89.43
2017-12-14T03:46:50.959Z,89.59
2017-12-14T03:47:50.883Z,89.54
2017-12-14T03:48:50.884Z,89.32
2017-12-14T03:49:50.883Z,89.37
2017-12-14T03:50:50.892Z,89.48
2017-12-14T03:51:50.961Z,89.78
2017-12-14T03:52:50.887Z,89.99
2017-12-14T03:53:50.886Z,89.97
2017-12-14T03:54:50.835Z,89.80
2017-12-14T03:55:50.839Z,89.40
2017-12-14T03:56:50.900Z,89.62
2017-12-14T03:57:50.990Z,90.07
2017-12-14T03:58:50.868Z,90.05
2017-12-14T03:59:50.897Z,89.67
2017-12-14T04:00:50.876Z,90.45
2017-12-14T04:01:50.845Z,90.98
2017-12-14T04:02:50.839Z,90.69
2017-12-14T04:03:50.824Z,90.26
2017-12-14T04:04:50.974Z,89.75
2017-12-14T04:05:50.873Z,90.13
2017-12-14T04:06:50.932Z,89.99
2017-12-14T04:07:50.899Z,89.86
2017-12-14T04:08:50.931Z,89.94
2017-12-14T04:09:50.826Z,90.18
2017-12-14T04:10:50.905Z,89.99
2017-12-14T04:11:50.936Z,90.02
2017-12-14T04:12:50.855Z,90.23
2017-12-14T04:13:50.901Z,90.07
2017-12-14T04:14:50.974Z,90.39
2017-12-14T04:15:50.905Z,90.50
2017-12-14T04:16:50.985Z,90.82
2017-12-14T04:17:50.904Z,90.58
2017-12-14T04:18:50.982Z,90.05
2017-12-14T04:19:50.907Z,90.55
2017-12-14T04:20:50.909Z,90.63
2017-12-14T04:21:50.980Z,91.20
2017-12-14T04:22:50.906Z,91.41
2017-12-14T04:23:50.942Z,91.71
2017-12-14T04:24:50.908Z,91.65
2017-12-14T04:25:50.939Z,91.25
2017-12-14T04:26:50.886Z,91.36
2017-12-14T04:27:50.961Z,91.41
2017-12-14T04:28:50.939Z,91.09
2017-12-14T04:29:50.944Z,91.22
2017-12-14T04:30:50.924Z,91.68
2017-12-14T04:31:50.857Z,91.65
2017-12-14T04:32:50.946Z,91.79
2017-12-14T04:33:50.987Z,92.08
2017-12-14T04:34:50.911Z,92.38
2017-12-14T04:35:50.987Z,92.57
2017-12-14T04:36:50.938Z,92.89
2017-12-14T04:37:50.916Z,92.99
2017-12-14T04:38:51.015Z,93.08
2017-12-14T04:39:50.917Z,92.91
2017-12-14T04:40:50.915Z,92.32
2017-12-14T04:41:50.916Z,92.49
2017-12-14T04:42:50.918Z,91.95
2017-12-14T04:43:50.994Z,91.86
2017-12-14T04:44:50.919Z,91.79
2017-12-14T04:45:50.920Z,91.63
2017-12-14T04:46:50.996Z,91.52
2017-12-14T04:47:50.925Z,91.20
2017-12-14T04:48:50.995Z,91.38
2017-12-14T04:49:50.922Z,91.36
2017-12-14T04:50:50.998Z,91.14
2017-12-14T04:51:50.928Z,91.25
2017-12-14T04:52:51.000Z,90.98
2017-12-14T04:53:50.929Z,90.77
2017-12-14T04:54:50.945Z,90.69
2017-12-14T04:55:51.002Z,90.31
2017-12-14T04:56:50.931Z,90.23
2017-12-14T04:57:50.927Z,90.31
2017-12-14T04:58:51.002Z,90.58
2017-12-14T04:59:50.933Z,90.53
2017-12-14T05:00:51.000Z,90.26
2017-12-14T05:01:50.934Z,89.83
2017-12-14T05:02:51.011Z,90.09
2017-12-14T05:03:50.917Z,89.99
2017-12-14T05:04:50.992Z,90.36
2017-12-14T05:05:50.912Z,90.34
2017-12-14T05:06:50.911Z,90.39
2017-12-14T05:07:50.973Z,91.01
2017-12-14T05:08:50.949Z,91.79
2017-12-14T05:09:50.975Z,91.60
2017-12-14T05:10:50.969Z,91.92
2017-12-14T05:11:50.912Z,92.24
2017-12-14T05:12:50.982Z,92.81
2017-12-14T05:13:50.938Z,93.24
2017-12-14T05:14:50.827Z,93.51
2017-12-14T05:15:50.828Z,93.81
2017-12-14T05:16:50.882Z,93.64
2017-12-14T05:17:50.925Z,93.94
2017-12-14T05:18:50.834Z,93.75
2017-12-14T05:19:50.895Z,93.40
2017-12-14T05:20:50.868Z,93.62
2017-12-14T05:21:50.831Z,93.81
2017-12-14T05:22:50.925Z,94.15
2017-12-14T05:23:51.012Z,94.45
2017-12-14T05:24:50.953Z,94.91
2017-12-14T05:25:51.020Z,95.34
2017-12-14T05:26:50.949Z,95.50
2017-12-14T05:27:51.019Z,96.07
2017-12-14T05:28:50.954Z,96.58
2017-12-14T05:29:50.945Z,96.83
2017-12-14T05:30:51.022Z,96.88
2017-12-14T05:31:50.948Z,97.34
2017-12-14T05:32:50.937Z,98.02
2017-12-14T05:33:50.949Z,98.59
2017-12-14T05:34:50.951Z,98.99
2017-12-14T05:35:51.026Z,99.45
2017-12-14T05:36:50.954Z,99.59
2017-12-14T05:37:51.106Z,99.67
2017-12-14T05:38:51.026Z,99.75
2017-12-14T05:39:50.952Z,99.86
2017-12-14T05:40:50.957Z,99.99
2017-12-14T05:41:51.028Z,99.99
2017-12-14T05:42:50.960Z,99.99
2017-12-14T05:43:51.014Z,99.99
2017-12-14T05:44:51.023Z,99.99
2017-12-14T05:45:50.928Z,99.99
2017-12-14T05:46:50.929Z,99.99
2017-12-14T05:47:50.974Z,99.99
2017-12-14T05:48:50.953Z,99.99
2017-12-14T05:49:51.030Z,99.99
2017-12-14T05:50:50.907Z,99.99
2017-12-14T05:51:50.997Z,99.99
2017-12-14T05:52:50.907Z,99.99
2017-12-14T05:53:50.920Z,99.99
2017-12-14T05:54:50.863Z,99.99
2017-12-14T05:55:50.908Z,99.99
2017-12-14T05:56:50.918Z,99.99
2017-12-14T05:57:50.890Z,99.99
2017-12-14T05:58:50.863Z,99.99
2017-12-14T05:59:50.985Z,99.99
2017-12-14T06:00:50.890Z,99.75
2017-12-14T06:01:51.052Z,99.83
2017-12-14T06:02:50.918Z,99.99
2017-12-14T06:03:51.021Z,99.99
2017-12-14T06:04:50.947Z,99.99
2017-12-14T06:05:50.928Z,99.99
2017-12-14T06:06:51.003Z,99.99
2017-12-14T06:07:51.007Z,99.99
2017-12-14T06:08:50.910Z,99.99
2017-12-14T06:09:51.002Z,99.99
2017-12-14T06:10:51.066Z,99.99
2017-12-14T06:11:50.909Z,99.99
2017-12-14T06:12:51.005Z,99.99
2017-12-14T06:13:50.955Z,99.99
2017-12-14T06:14:51.009Z,99.99
2017-12-14T06:15:50.950Z,99.99
2017-12-14T06:16:50.998Z,99.99
2017-12-14T06:17:50.913Z,99.99
2017-12-14T06:18:50.952Z,99.99
2017-12-14T06:19:50.903Z,99.99
2017-12-14T06:20:50.996Z,99.99
2017-12-14T06:21:50.958Z,99.99
2017-12-14T06:22:50.986Z,99.99
2017-12-14T06:23:51.060Z,99.99
2017-12-14T06:24:50.979Z,99.99
2017-12-14T06:25:51.055Z,99.99
2017-12-14T06:26:50.984Z,99.99
2017-12-14T06:27:51.057Z,99.99
2017-12-14T06:28:50.980Z,99.99
2017-12-14T06:29:50.983Z,99.99
2017-12-14T06:30:51.059Z,99.99
2017-12-14T06:31:50.982Z,99.99
2017-12-14T06:32:51.061Z,99.99
2017-12-14T06:33:51.027Z,99.99
2017-12-14T06:34:51.055Z,99.99
2017-12-14T06:35:50.961Z,99.99
2017-12-14T06:36:50.999Z,99.99
2017-12-14T06:37:51.024Z,99.99
2017-12-14T06:38:51.002Z,99.99
2017-12-14T06:39:51.048Z,99.99
2017-12-14T06:40:51.047Z,99.99
2017-12-14T06:41:51.027Z,99.99
2017-12-14T06:42:51.036Z,99.99
2017-12-14T06:43:51.065Z,99.99
2017-12-14T06:44:50.996Z,99.99
2017-12-14T06:45:50.992Z,99.99
2017-12-14T06:46:51.069Z,99.99
2017-12-14T06:47:50.996Z,99.99
2017-12-14T06:48:51.067Z,99.99
2017-12-14T06:49:50.992Z,99.99
2017-12-14T06:50:51.002Z,99.99
2017-12-14T06:51:51.071Z,99.99
2017-12-14T06:52:51.137Z,99.99
2017-12-14T06:53:51.072Z,99.99
2017-12-14T06:54:51.000Z,99.99
2017-12-14T06:55:51.078Z,99.99
2017-12-14T06:56:51.000Z,99.99
2017-12-14T06:57:51.079Z,99.99
2017-12-14T06:58:50.999Z,99.99
2017-12-14T06:59:51.073Z,99.99
2017-12-14T07:00:50.998Z,99.99
2017-12-14T07:01:51.073Z,99.99
2017-12-14T07:02:51.001Z,99.99
2017-12-14T07:03:51.005Z,99.99
2017-12-14T07:04:51.078Z,99.99
2017-12-14T07:05:51.007Z,99.99
2017-12-14T07:06:51.079Z,99.99
2017-12-14T07:07:51.005Z,99.99
2017-12-14T07:08:51.005Z,99.99
2017-12-14T07:09:51.081Z,99.99
2017-12-14T07:10:51.082Z,99.99
2017-12-14T07:11:51.005Z,99.99
2017-12-14T07:12:51.012Z,99.99
2017-12-14T07:13:50.983Z,99.99
2017-12-14T07:14:50.948Z,99.99
2017-12-14T07:15:51.015Z,99.99
2017-12-14T07:16:51.047Z,99.99
2017-12-14T07:17:51.017Z,99.99
2017-12-14T07:18:51.045Z,99.99
2017-12-14T07:19:51.042Z,99.99
2017-12-14T07:20:51.063Z,99.99
2017-12-14T07:21:51.044Z,99.99
2017-12-14T07:22:50.952Z,99.99
2017-12-14T07:23:51.016Z,99.99
2017-12-14T07:24:51.088Z,99.99
2017-12-14T07:25:51.091Z,99.99
2017-12-14T07:26:51.014Z,99.99
2017-12-14T07:27:51.005Z,99.99
2017-12-14T07:28:51.096Z,99.99
2017-12-14T07:29:51.024Z,99.99
2017-12-14T07:30:51.094Z,99.99
2017-12-14T07:31:51.025Z,99.99
2017-12-14T07:32:51.096Z,99.99
2017-12-14T07:33:51.007Z,99.99
2017-12-14T07:34:50.993Z,99.99
2017-12-14T07:35:51.078Z,99.99
2017-12-14T07:36:51.093Z,99.99
2017-12-14T07:37:51.062Z,99.99
2017-12-14T07:38:50.974Z,99.99
2017-12-14T07:39:50.996Z,99.99
2017-12-14T07:40:51.042Z,99.99
2017-12-14T07:41:51.089Z,99.99
2017-12-14T07:42:51.044Z,99.99
2017-12-14T07:43:51.056Z,99.99
2017-12-14T07:44:51.059Z,99.99
2017-12-14T07:45:51.058Z,99.99
2017-12-14T07:46:50.966Z,99.99
2017-12-14T07:47:51.062Z,99.99
2017-12-14T07:48:51.030Z,99.99
2017-12-14T07:49:51.063Z,99.99
2017-12-14T07:50:51.013Z,99.99
2017-12-14T07:51:50.977Z,99.99
2017-12-14T07:52:50.994Z,99.99
2017-12-14T07:53:50.982Z,99.99
2017-12-14T07:54:51.033Z,99.99
2017-12-14T07:55:51.064Z,99.99
2017-12-14T07:56:51.075Z,99.99
2017-12-14T07:57:51.049Z,99.99
2017-12-14T07:58:51.106Z,99.99
2017-12-14T07:59:51.097Z,99.99
2017-12-14T08:00:51.015Z,99.99
2017-12-14T08:01:51.009Z,99.99
2017-12-14T08:02:51.103Z,99.99
2017-12-14T08:03:51.103Z,99.99
2017-12-14T08:04:51.076Z,99.99
2017-12-14T08:05:50.989Z,99.99
2017-12-14T08:06:51.083Z,99.99
2017-12-14T08:07:51.101Z,99.99
2017-12-14T08:08:51.062Z,99.99
2017-12-14T08:09:50.989Z,99.99
2017-12-14T08:10:51.108Z,99.99
2017-12-14T08:11:51.079Z,99.99
2017-12-14T08:12:51.056Z,99.99
2017-12-14T08:13:51.075Z,99.99
2017-12-14T08:14:51.078Z,99.99
2017-12-14T08:15:51.050Z,99.99
2017-12-14T08:16:51.019Z,99.99
2017-12-14T08:17:51.080Z,99.99
2017-12-14T08:18:51.079Z,99.99
2017-12-14T08:19:51.086Z,99.99
2017-12-14T08:20:51.048Z,99.99
2017-12-14T08:21:51.110Z,99.99
2017-12-14T08:22:51.047Z,99.99
2017-12-14T08:23:51.078Z,99.99
2017-12-14T08:24:50.987Z,99.99
2017-12-14T08:25:51.016Z,99.99
2017-12-14T08:26:51.127Z,99.99
2017-12-14T08:27:51.083Z,99.99
2017-12-14T08:28:51.004Z,99.99
2017-12-14T08:29:51.055Z,99.99
2017-12-14T08:30:51.052Z,99.99
2017-12-14T08:31:50.994Z,99.99
2017-12-14T08:32:50.987Z,99.99
2017-12-14T08:33:51.008Z,99.99
2017-12-14T08:34:51.055Z,99.99
2017-12-14T08:35:51.033Z,99.99
2017-12-14T08:36:51.126Z,99.99
2017-12-14T08:37:51.054Z,99.99
2017-12-14T08:38:51.102Z,99.99
2017-12-14T08:39:51.061Z,99.99
2017-12-14T08:40:51.102Z,99.99
2017-12-14T08:41:51.039Z,99.99
2017-12-14T08:42:51.061Z,99.99
2017-12-14T08:43:51.031Z,99.99
2017-12-14T08:44:50.999Z,99.99
2017-12-14T08:45:51.063Z,99.99
2017-12-14T08:46:50.989Z,99.99
2017-12-14T08:47:51.102Z,99.99
2017-12-14T08:48:51.008Z,99.99
2017-12-14T08:49:51.097Z,99.99
2017-12-14T08:50:51.081Z,99.99
2017-12-14T08:51:51.096Z,99.99
2017-12-14T08:52:50.999Z,99.99
2017-12-14T08:53:51.100Z,99.99
2017-12-14T08:54:51.085Z,99.99
2017-12-14T08:55:51.052Z,99.99
2017-12-14T08:56:51.241Z,99.99
2017-12-14T08:57:51.068Z,99.99
2017-12-14T08:58:51.144Z,99.99
2017-12-14T08:59:51.095Z,99.99
2017-12-14T09:00:51.115Z,99.99
2017-12-14T09:01:51.146Z,99.99
2017-12-14T09:02:51.061Z,99.99
2017-12-14T09:03:51.074Z,99.99
2017-12-14T09:04:51.119Z,99.99
2017-12-14T09:05:51.061Z,99.99
2017-12-14T09:06:51.033Z,99.99
2017-12-14T09:07:51.144Z,99.99
2017-12-14T09:08:51.144Z,99.99
2017-12-14T09:09:51.146Z,99.99
2017-12-14T09:10:51.064Z,99.86
2017-12-14T09:11:51.116Z,99.99
2017-12-14T09:12:51.044Z,99.99
2017-12-14T09:13:51.106Z,99.99
2017-12-14T09:14:51.064Z,99.99
2017-12-14T09:15:51.141Z,99.99
2017-12-14T09:16:51.099Z,99.99
2017-12-14T09:17:51.060Z,99.72
2017-12-14T09:18:51.099Z,99.34
2017-12-14T09:19:51.148Z,98.96
2017-12-14T09:20:51.068Z,98.80
2017-12-14T09:21:51.035Z,98.91
2017-12-14T09:22:51.146Z,99.23
2017-12-14T09:23:51.068Z,99.37
2017-12-14T09:24:51.118Z,99.26
2017-12-14T09:25:51.120Z,98.64
2017-12-14T09:26:51.117Z,98.64
2017-12-14T09:27:51.118Z,98.77
2017-12-14T09:28:51.121Z,98.94
2017-12-14T09:29:51.119Z,98.99
2017-12-14T09:30:51.170Z,98.85
2017-12-14T09:31:51.077Z,99.04
2017-12-14T09:32:51.120Z,99.21
2017-12-14T09:33:51.062Z,99.10
2017-12-14T09:34:51.088Z,99.23
2017-12-14T09:35:51.140Z,99.23
2017-12-14T09:36:51.163Z,99.21
2017-12-14T09:37:51.129Z,99.32
2017-12-14T09:38:51.093Z,99.40
2017-12-14T09:39:51.159Z,99.40
2017-12-14T09:40:51.056Z,99.13
2017-12-14T09:41:51.093Z,98.80
2017-12-14T09:42:51.083Z,98.96
2017-12-14T09:43:51.084Z,98.80
2017-12-14T09:44:51.033Z,98.55
2017-12-14T09:45:51.086Z,98.26
2017-12-14T09:46:51.099Z,98.26
2017-12-14T09:47:51.036Z,98.12
2017-12-14T09:48:51.035Z,98.07
2017-12-14T09:49:51.036Z,97.88
2017-12-14T09:50:51.129Z,97.72
2017-12-14T09:51:51.132Z,97.77
2017-12-14T09:52:51.036Z,97.83
2017-12-14T09:53:51.091Z,97.50
2017-12-14T09:54:51.178Z,96.66
2017-12-14T09:55:51.057Z,96.07
2017-12-14T09:58:51.147Z,96.72
2017-12-14T09:59:51.062Z,96.96
2017-12-14T10:00:51.176Z,97.42
2017-12-14T10:01:51.184Z,97.85
2017-12-14T10:02:51.094Z,97.50
2017-12-14T10:03:51.094Z,97.34
2017-12-14T10:04:51.059Z,96.53
2017-12-14T10:05:51.012Z,96.42
2017-12-14T10:06:51.074Z,95.61
2017-12-14T10:07:51.131Z,94.67
2017-12-14T10:08:51.137Z,94.45
2017-12-14T10:09:51.125Z,93.89
2017-12-14T10:10:51.117Z,93.32
2017-12-14T10:11:51.138Z,91.68
2017-12-14T10:12:51.066Z,92.43
2017-12-14T10:13:51.120Z,91.90
2017-12-14T10:14:51.118Z,91.52
2017-12-14T10:15:51.191Z,91.52
2017-12-14T10:16:51.117Z,92.54
2017-12-14T10:17:51.118Z,91.57
2017-12-14T10:18:51.193Z,90.85
2017-12-14T10:19:51.195Z,89.97
2017-12-14T10:20:51.121Z,90.98
2017-12-14T10:21:51.195Z,91.41
2017-12-14T10:22:51.121Z,91.11
2017-12-14T10:23:51.195Z,90.96
2017-12-14T10:24:51.109Z,90.93
2017-12-14T10:25:51.110Z,90.85
2017-12-14T10:26:51.131Z,90.80
2017-12-14T10:27:51.110Z,91.25
2017-12-14T10:28:51.106Z,88.46
2017-12-14T10:29:51.151Z,89.29
2017-12-14T10:30:51.115Z,90.90
2017-12-14T10:31:51.173Z,91.86
2017-12-14T10:32:51.112Z,91.73
2017-12-14T10:33:51.128Z,90.93
2017-12-14T10:34:51.203Z,92.19
2017-12-14T10:35:51.133Z,92.22
2017-12-14T10:36:51.203Z,92.65
2017-12-14T10:37:51.116Z,92.81
2017-12-14T10:38:51.131Z,91.55
2017-12-14T10:39:51.201Z,89.78
2017-12-14T10:40:51.132Z,89.83
2017-12-14T10:41:51.211Z,91.36
2017-12-14T10:42:51.131Z,90.96
2017-12-14T10:43:51.208Z,89.40
2017-12-14T10:44:51.131Z,89.24
2017-12-14T10:45:51.140Z,89.11
2017-12-14T10:46:51.205Z,89.16
2017-12-14T10:47:51.208Z,90.18
2017-12-14T10:48:51.210Z,89.94
2017-12-14T10:49:51.180Z,87.45
2017-12-14T10:50:51.133Z,87.82
2017-12-14T10:51:51.209Z,89.29
2017-12-14T10:52:51.206Z,90.05
2017-12-14T10:53:51.108Z,90.15
2017-12-14T10:54:51.094Z,90.93
2017-12-14T10:55:51.127Z,90.34
2017-12-14T10:56:51.258Z,90.09
2017-12-14T10:57:51.221Z,90.31
2017-12-14T10:58:51.226Z,91.17
2017-12-14T10:59:51.128Z,89.14
2017-12-14T11:00:51.142Z,89.08
2017-12-14T11:01:51.212Z,89.03
2017-12-14T11:02:51.210Z,88.95
2017-12-14T11:03:51.216Z,89.59
2017-12-14T11:04:51.213Z,89.22
2017-12-14T11:05:51.146Z,88.41
2017-12-14T11:06:51.157Z,88.71
2017-12-14T11:07:51.224Z,87.56
2017-12-14T11:08:51.221Z,87.32
2017-12-14T11:09:51.157Z,86.68
2017-12-14T11:10:51.135Z,85.27
2017-12-14T11:11:51.222Z,86.46
2017-12-14T11:12:51.136Z,86.87
2017-12-14T11:13:51.189Z,87.00
2017-12-14T11:14:51.133Z,86.89
2017-12-14T11:15:51.108Z,86.87
2017-12-14T11:16:51.139Z,87.56
2017-12-14T11:17:51.105Z,86.46
2017-12-14T11:18:51.225Z,86.84
2017-12-14T11:19:51.142Z,87.34
2017-12-14T11:20:51.163Z,86.68
2017-12-14T11:21:51.137Z,87.21
2017-12-14T11:22:51.144Z,87.18
2017-12-14T11:23:51.173Z,87.45
2017-12-14T11:24:51.125Z,85.48
2017-12-14T11:25:51.234Z,85.85
2017-12-14T11:26:51.169Z,85.19
2017-12-14T11:27:51.148Z,86.46
2017-12-14T11:28:51.144Z,85.53
2017-12-14T11:29:51.229Z,86.30
2017-12-14T11:30:51.238Z,85.24
2017-12-14T11:31:51.147Z,83.89
2017-12-14T11:32:51.169Z,84.81
2017-12-14T11:33:51.229Z,85.88
2017-12-14T11:34:51.116Z,85.61
2017-12-14T11:35:51.230Z,85.66
2017-12-14T11:36:51.201Z,86.54
2017-12-14T11:37:51.208Z,85.64
2017-12-14T11:38:51.157Z,85.13
2017-12-14T11:39:51.151Z,84.92
2017-12-14T11:40:51.152Z,85.21
2017-12-14T11:41:51.116Z,85.24
2017-12-14T11:42:51.187Z,85.66
2017-12-14T11:43:51.185Z,85.53
2017-12-14T11:44:51.245Z,84.63
2017-12-14T11:45:51.244Z,83.86
2017-12-14T11:46:51.170Z,84.39
2017-12-14T11:47:51.171Z,85.21
2017-12-14T11:48:51.173Z,85.53
2017-12-14T11:49:51.140Z,84.02
2017-12-14T11:50:51.171Z,83.33
2017-12-14T11:51:51.163Z,84.42
2017-12-14T11:52:51.216Z,83.94
2017-12-14T11:53:51.261Z,83.38
2017-12-14T11:54:51.113Z,83.22
2017-12-14T11:55:51.209Z,82.61
2017-12-14T11:56:51.209Z,82.43
2017-12-14T11:57:51.174Z,82.16
2017-12-14T11:58:51.114Z,81.92
2017-12-14T11:59:51.117Z,81.21
2017-12-14T12:00:51.123Z,81.95
2017-12-14T12:01:51.251Z,79.89
2017-12-14T12:02:51.212Z,78.73
2017-12-14T12:03:51.211Z,77.04
2017-12-14T12:04:51.149Z,78.57
2017-12-14T12:05:51.162Z,78.15
2017-12-14T12:06:51.220Z,79.07
2017-12-14T12:07:51.161Z,79.65
2017-12-14T12:08:51.242Z,78.91
2017-12-14T12:09:51.160Z,78.94
2017-12-14T12:10:51.169Z,79.44
2017-12-14T12:11:51.192Z,78.78
2017-12-14T12:12:51.252Z,77.39
2017-12-14T12:13:51.246Z,78.73
2017-12-14T12:14:51.129Z,79.99
2017-12-14T12:15:51.158Z,80.07
2017-12-14T12:16:51.136Z,79.10
2017-12-14T12:17:51.239Z,78.73
2017-12-14T12:18:51.225Z,78.81
2017-12-14T12:19:51.134Z,78.39
2017-12-14T12:20:51.189Z,80.52
2017-12-14T12:21:51.230Z,79.79
2017-12-14T12:22:51.229Z,80.39
2017-12-14T12:23:51.228Z,80.84
2017-12-14T12:24:51.234Z,80.92
2017-12-14T12:25:51.213Z,79.81
2017-12-14T12:26:51.235Z,80.29
2017-12-14T12:27:51.212Z,79.20
2017-12-14T12:28:51.216Z,79.33
2017-12-14T12:29:51.170Z,79.86
2017-12-14T12:30:51.235Z,79.52
2017-12-14T12:31:51.184Z,79.33
2017-12-14T12:32:51.175Z,79.60
2017-12-14T12:33:51.149Z,78.17
2017-12-14T12:34:51.213Z,77.73
2017-12-14T12:35:51.152Z,78.49
2017-12-14T12:36:51.224Z,77.36
2017-12-14T12:37:51.102Z,77.73
2017-12-14T12:38:51.213Z,78.52
2017-12-14T12:39:51.209Z,78.73
2017-12-14T12:40:51.158Z,79.02
2017-12-14T12:41:51.204Z,77.57
2017-12-14T12:42:51.212Z,76.65
2017-12-14T12:43:51.224Z,78.20
2017-12-14T12:44:51.151Z,79.13
2017-12-14T12:45:51.240Z,78.59
2017-12-14T12:46:51.218Z,77.97
2017-12-14T12:47:51.181Z,77.62
2017-12-14T12:48:51.267Z,78.07
2017-12-14T12:49:51.276Z,78.59
2017-12-14T12:50:51.164Z,78.59
2017-12-14T12:51:51.165Z,79.49
2017-12-14T12:52:51.226Z,80.15
2017-12-14T12:53:51.284Z,80.15
2017-12-14T12:54:51.215Z,81.37
2017-12-14T12:55:51.169Z,80.84
2017-12-14T12:56:51.212Z,81.71
2017-12-14T12:57:51.287Z,81.02
2017-12-14T12:58:51.291Z,81.18